createdAt,value
2022-10-23T07:17:46.778Z,2.95
2022-10-23T07:21:26.396Z,3.03
2022-10-23T07:25:16.880Z,2.78
2022-10-23T07:29:26.033Z,5.00
2022-10-23T07:33:22.365Z,3.58
2022-10-23T07:36:56.302Z,3.28
2022-10-23T07:40:31.454Z,3.25
2022-10-23T07:55:32.726Z,3.15
2022-10-23T07:59:07.770Z,3.80
2022-10-23T08:02:30.625Z,4.85
2022-10-23T08:10:49.318Z,4.80
2022-10-23T08:13:30.929Z,4.60
2022-10-23T08:17:44.185Z,4.57
2022-10-23T08:22:29.476Z,3.90
2022-10-23T08:39:03.861Z,3.97
2022-10-23T08:42:39.735Z,4.28
2022-10-23T08:46:13.705Z,3.62
2022-10-23T08:50:03.820Z,3.87
2022-10-23T08:53:49.710Z,4.37
2022-10-23T08:57:38.853Z,4.18
2022-10-23T09:01:27.082Z,4.93
2022-10-23T09:05:52.015Z,5.80
2022-10-23T09:09:46.350Z,5.78
2022-10-23T09:26:38.197Z,6.47
2022-10-23T09:30:36.506Z,7.22
2022-10-23T09:34:11.633Z,7.20
2022-10-23T09:37:51.284Z,7.28
2022-10-23T09:41:38.446Z,7.65
2022-10-23T09:45:32.538Z,8.07
2022-10-23T09:49:40.130Z,8.00
2022-10-23T09:54:03.411Z,8.02
2022-10-23T09:57:51.318Z,7.53
2022-10-23T10:01:45.640Z,6.62
2022-10-23T10:05:42.577Z,7.05
2022-10-23T10:09:20.872Z,8.13
2022-10-23T10:13:02.091Z,8.25
2022-10-23T10:17:07.038Z,9.57
2022-10-23T10:21:55.052Z,8.93
2022-10-23T10:26:15.224Z,8.93
2022-10-23T10:34:22.195Z,8.65
2022-10-23T10:38:23.448Z,7.85
2022-10-23T10:42:23.664Z,7.53
2022-10-23T10:46:35.466Z,6.97
2022-10-23T10:50:02.886Z,6.72
2022-10-23T10:57:42.156Z,6.90
2022-10-23T11:00:56.024Z,6.28
2022-10-23T11:04:30.105Z,8.00
2022-10-23T11:08:15.161Z,8.38
2022-10-23T11:11:49.145Z,8.07
2022-10-23T11:15:29.210Z,9.85
2022-10-23T11:19:04.525Z,8.93
2022-10-23T11:23:01.003Z,10.02
2022-10-23T11:26:38.678Z,8.98
2022-10-23T11:29:59.029Z,8.13
2022-10-23T11:33:22.469Z,7.80
2022-10-23T11:36:53.273Z,8.00
2022-10-23T11:40:21.563Z,8.38
2022-10-23T11:43:37.761Z,7.57
2022-10-23T11:47:39.561Z,7.57
2022-10-23T11:50:45.136Z,7.22
2022-10-23T11:54:35.986Z,6.93
2022-10-23T11:58:23.348Z,6.12
2022-10-23T12:01:36.397Z,5.53
2022-10-23T12:04:50.168Z,6.40
2022-10-23T12:08:01.282Z,5.95
2022-10-23T12:11:27.638Z,6.37
2022-10-23T12:18:52.762Z,5.40
2022-10-23T12:22:12.340Z,5.35
2022-10-23T12:26:10.589Z,5.37
2022-10-23T12:34:11.661Z,5.28
2022-10-23T12:38:03.788Z,5.07
2022-10-23T12:41:47.152Z,5.78
2022-10-23T12:58:44.231Z,4.87
2022-10-23T13:02:28.570Z,5.90
2022-10-23T13:06:03.249Z,4.47
2022-10-23T13:09:41.459Z,4.40
2022-10-23T13:13:25.669Z,4.72
2022-10-23T13:17:22.456Z,4.50
2022-10-23T13:20:58.121Z,4.55
2022-10-23T13:24:21.203Z,5.15
2022-10-23T13:28:04.201Z,4.55
2022-10-23T13:31:11.174Z,4.57
2022-10-23T13:34:34.898Z,5.03
2022-10-23T13:38:38.061Z,5.10
2022-10-23T13:42:13.959Z,5.15
2022-10-23T13:45:41.056Z,5.72
2022-10-23T13:48:47.130Z,5.70
2022-10-23T13:52:00.463Z,6.00
2022-10-23T13:55:26.702Z,5.93
2022-10-23T13:58:37.280Z,6.12
2022-10-23T14:02:19.193Z,6.12
2022-10-23T14:05:59.220Z,6.20
2022-10-23T14:09:21.143Z,6.23
2022-10-23T14:12:45.836Z,6.07
2022-10-23T14:15:55.629Z,6.13
2022-10-23T14:18:59.791Z,6.53
2022-10-23T14:22:10.456Z,6.45
2022-10-23T14:26:15.591Z,5.65
2022-10-23T14:29:50.204Z,6.87
2022-10-23T14:33:17.180Z,7.03
2022-10-23T14:36:50.284Z,6.65
2022-10-23T14:40:21.929Z,5.60
2022-10-23T14:43:33.173Z,5.43
2022-10-23T14:46:57.115Z,6.15
2022-10-23T14:50:12.342Z,5.82
2022-10-23T14:53:36.664Z,7.53
2022-10-23T14:57:23.152Z,8.82
2022-10-23T15:00:58.011Z,6.20
2022-10-23T15:04:04.198Z,6.20
2022-10-23T15:07:29.090Z,6.50
2022-10-23T15:11:13.377Z,5.85
2022-10-23T15:14:17.917Z,5.20
2022-10-23T15:17:24.802Z,5.87
2022-10-23T15:20:29.932Z,8.60
2022-10-23T15:23:36.848Z,9.55
2022-10-23T15:26:44.800Z,7.57
2022-10-23T15:29:48.622Z,5.37
2022-10-23T15:32:57.645Z,6.00
2022-10-23T15:36:20.688Z,6.18
2022-10-23T15:39:59.735Z,6.10
2022-10-23T15:43:34.718Z,6.03
2022-10-23T15:46:58.081Z,6.55
2022-10-23T15:50:09.758Z,6.68
2022-10-23T15:53:15.714Z,13.15
2022-10-23T15:56:50.957Z,8.35
2022-10-23T16:00:21.704Z,8.23
2022-10-23T16:04:07.781Z,8.27
2022-10-23T16:07:40.123Z,8.98
2022-10-23T16:10:44.455Z,8.38
2022-10-23T16:13:51.663Z,5.30
2022-10-23T16:17:03.326Z,4.80
2022-10-23T16:20:34.037Z,5.00
2022-10-23T16:24:00.103Z,3.70
2022-10-23T16:27:23.865Z,3.15
2022-10-23T16:30:30.279Z,3.25
2022-10-23T16:37:06.982Z,2.10
2022-10-23T16:40:25.767Z,2.33
2022-10-23T16:43:31.816Z,2.65
2022-10-23T16:46:35.886Z,1.95
2022-10-23T16:49:39.114Z,2.30
2022-10-23T16:52:46.236Z,2.35
2022-10-23T16:55:53.606Z,2.55
2022-10-23T16:59:01.352Z,2.08
2022-10-23T17:02:50.621Z,4.62
2022-10-23T17:06:01.593Z,4.55
2022-10-23T17:09:07.595Z,3.75
2022-10-23T17:12:13.308Z,2.65
2022-10-23T17:15:25.647Z,2.43
2022-10-23T17:18:45.325Z,2.50
2022-10-23T17:21:54.250Z,2.70
2022-10-23T17:24:57.972Z,2.12
2022-10-23T17:28:21.520Z,2.25
2022-10-23T17:31:26.669Z,2.12
2022-10-23T17:34:32.451Z,2.35
2022-10-23T17:37:35.204Z,2.42
2022-10-23T17:40:39.930Z,2.72
2022-10-23T17:43:45.804Z,2.50
2022-10-23T17:46:58.367Z,2.80
2022-10-23T17:50:03.196Z,2.50
2022-10-23T17:53:08.817Z,3.50
2022-10-23T17:56:19.051Z,5.05
2022-10-23T17:59:24.624Z,5.93
2022-10-23T18:02:31.376Z,5.87
2022-10-23T18:09:07.978Z,5.28
2022-10-23T18:12:20.362Z,4.57
2022-10-23T18:15:25.174Z,3.83
2022-10-23T18:18:30.142Z,3.37
2022-10-23T18:21:35.954Z,3.50
2022-10-23T18:24:54.497Z,2.87
2022-10-23T18:28:01.759Z,3.12
2022-10-23T18:31:10.834Z,3.37
2022-10-23T18:34:19.127Z,3.50
2022-10-23T18:37:26.799Z,3.33
2022-10-23T18:40:34.764Z,5.20
2022-10-23T18:43:44.362Z,6.03
2022-10-23T18:46:50.868Z,6.35
2022-10-23T18:49:58.670Z,5.60
2022-10-23T18:53:02.191Z,5.30
2022-10-23T18:56:12.319Z,4.12
2022-10-23T18:59:19.123Z,4.30
2022-10-23T19:02:25.979Z,5.35
2022-10-23T19:05:29.632Z,5.37
2022-10-23T19:08:37.117Z,5.50
2022-10-23T19:14:47.498Z,5.20
2022-10-23T19:17:53.920Z,5.72
2022-10-23T19:20:57.314Z,6.30
2022-10-23T19:24:07.669Z,5.90
2022-10-23T19:27:10.892Z,7.28
2022-10-23T19:30:19.334Z,8.70
2022-10-23T19:33:26.158Z,8.15
2022-10-23T19:36:32.128Z,7.75
2022-10-23T19:39:36.502Z,7.65
2022-10-23T19:42:44.920Z,6.62
2022-10-23T19:45:48.352Z,7.22
2022-10-23T19:48:51.303Z,5.65
2022-10-23T19:51:57.263Z,4.45
2022-10-23T19:55:03.331Z,4.65
2022-10-23T20:01:10.807Z,3.65
2022-10-23T20:04:14.942Z,4.32
2022-10-23T20:07:19.418Z,5.53
2022-10-23T20:10:25.946Z,5.32
2022-10-23T20:13:28.687Z,8.00
2022-10-23T20:16:35.556Z,6.80
2022-10-23T20:22:44.073Z,6.07
2022-10-23T20:25:47.278Z,5.90
2022-10-23T20:28:55.989Z,5.43
2022-10-23T20:32:21.833Z,5.20
2022-10-23T20:39:07.879Z,5.70
2022-10-23T20:42:13.647Z,5.68
2022-10-23T20:45:19.296Z,5.18
2022-10-23T20:48:22.245Z,5.20
2022-10-23T20:51:27.978Z,5.40
2022-10-23T20:54:52.460Z,4.95
2022-10-23T20:57:55.411Z,4.45
2022-10-23T21:01:10.742Z,4.60
2022-10-23T21:04:21.726Z,4.65
2022-10-23T21:07:29.424Z,4.80
2022-10-23T21:10:33.956Z,4.82
2022-10-23T21:13:39.986Z,4.20
2022-10-23T21:16:46.527Z,4.10
2022-10-23T21:19:54.337Z,4.30
2022-10-23T21:22:57.745Z,4.20
2022-10-23T21:26:06.170Z,5.45
2022-10-23T21:29:18.479Z,4.93
2022-10-23T21:32:28.558Z,4.78
2022-10-23T21:35:31.916Z,4.65
2022-10-23T21:38:36.311Z,4.90
2022-10-23T21:41:39.004Z,5.30
2022-10-23T21:44:42.001Z,5.35
2022-10-23T21:47:45.201Z,5.10
2022-10-23T21:53:53.911Z,4.70
2022-10-23T21:57:03.470Z,5.05
2022-10-23T22:00:10.167Z,4.55
2022-10-23T22:03:16.475Z,4.80
2022-10-23T22:06:25.122Z,5.32
2022-10-23T22:09:27.763Z,4.72
2022-10-23T22:12:31.436Z,4.40
2022-10-23T22:15:36.276Z,4.75
2022-10-23T22:18:39.710Z,5.50
2022-10-23T22:21:43.904Z,4.53
2022-10-23T22:24:48.105Z,4.93
2022-10-23T22:27:53.798Z,4.70
2022-10-23T22:30:56.908Z,5.25
2022-10-23T22:34:08.592Z,4.53
2022-10-23T22:37:21.865Z,5.28
2022-10-23T22:40:24.933Z,5.28
2022-10-23T22:43:29.479Z,4.72
2022-10-23T22:46:34.349Z,5.25
2022-10-23T22:49:44.302Z,4.47
2022-10-23T22:52:49.008Z,4.87
2022-10-23T22:55:52.953Z,4.72
2022-10-23T22:59:15.468Z,4.93
2022-10-23T23:02:23.405Z,5.10
2022-10-23T23:05:25.755Z,5.62
2022-10-23T23:08:28.517Z,4.35
2022-10-23T23:11:40.764Z,4.93
2022-10-23T23:14:54.412Z,5.60
2022-10-23T23:17:57.466Z,5.12
2022-10-23T23:21:02.349Z,5.25
2022-10-23T23:24:08.073Z,6.12
2022-10-23T23:27:13.601Z,5.43
2022-10-23T23:30:16.342Z,5.10
2022-10-23T23:33:19.936Z,5.35
2022-10-23T23:36:25.548Z,5.07
2022-10-23T23:39:28.752Z,5.65
2022-10-23T23:42:35.990Z,5.32
2022-10-23T23:45:38.931Z,5.60
2022-10-23T23:48:47.176Z,5.65
2022-10-23T23:51:50.593Z,6.43
2022-10-23T23:54:53.299Z,6.25
2022-10-23T23:57:55.983Z,5.87
